sensor_id;sensor_type;location;lat;lon;timestamp;P1;durP1;ratioP1;P2;durP2;ratioP2
71570;SDS011;59407;42.682;23.322;2024-01-11T05:45:05;13.52;;;8.00;;
71570;SDS011;59407;42.682;23.322;2024-01-11T05:47:31;16.58;;;10.35;;
71570;SDS011;59407;42.682;23.322;2024-01-11T05:49:58;24.47;;;12.03;;
71570;SDS011;59407;42.682;23.322;2024-01-11T05:52:25;29.10;;;12.95;;
71570;SDS011;59407;42.682;23.322;2024-01-11T05:54:50;27.13;;;12.60;;
71570;SDS011;59407;42.682;23.322;2024-01-11T05:57:16;24.55;;;11.77;;
71570;SDS011;59407;42.682;23.322;2024-01-11T05:59:44;27.57;;;13.40;;
71570;SDS011;59407;42.682;23.322;2024-01-11T06:02:12;26.00;;;14.25;;
71570;SDS011;59407;42.682;23.322;2024-01-11T06:04:38;25.15;;;13.07;;
71570;SDS011;59407;42.682;23.322;2024-01-11T06:07:04;24.53;;;13.20;;
71570;SDS011;59407;42.682;23.322;2024-01-11T06:09:30;32.25;;;15.30;;
71570;SDS011;59407;42.682;23.322;2024-01-11T06:11:56;27.50;;;15.43;;
71570;SDS011;59407;42.682;23.322;2024-01-11T06:14:24;23.60;;;14.27;;
71570;SDS011;59407;42.682;23.322;2024-01-11T06:16:50;22.60;;;13.93;;
71570;SDS011;59407;42.682;23.322;2024-01-11T06:19:16;22.45;;;13.05;;
71570;SDS011;59407;42.682;23.322;2024-01-11T06:21:44;34.60;;;15.07;;
71570;SDS011;59407;42.682;23.322;2024-01-11T06:24:12;21.75;;;12.23;;
71570;SDS011;59407;42.682;23.322;2024-01-11T06:26:37;21.47;;;14.43;;
71570;SDS011;59407;42.682;23.322;2024-01-11T06:29:03;22.90;;;15.63;;
71570;SDS011;59407;42.682;23.322;2024-01-11T06:37:56;23.88;;;16.48;;
71570;SDS011;59407;42.682;23.322;2024-01-11T06:43:35;37.23;;;17.33;;
71570;SDS011;59407;42.682;23.322;2024-01-11T06:46:05;24.02;;;17.27;;
71570;SDS011;59407;42.682;23.322;2024-01-11T06:48:31;29.33;;;18.10;;
71570;SDS011;59407;42.682;23.322;2024-01-11T06:50:59;27.88;;;18.05;;
71570;SDS011;59407;42.682;23.322;2024-01-11T06:53:24;41.10;;;21.87;;
71570;SDS011;59407;42.682;23.322;2024-01-11T06:55:50;27.70;;;15.85;;
71570;SDS011;59407;42.682;23.322;2024-01-11T06:58:17;29.70;;;17.85;;
71570;SDS011;59407;42.682;23.322;2024-01-11T07:00:42;30.80;;;19.97;;
71570;SDS011;59407;42.682;23.322;2024-01-11T07:03:09;24.47;;;13.60;;
71570;SDS011;59407;42.682;23.322;2024-01-11T07:05:35;30.98;;;17.77;;
71570;SDS011;59407;42.682;23.322;2024-01-11T07:08:01;30.50;;;17.95;;
71570;SDS011;59407;42.682;23.322;2024-01-11T07:10:26;31.00;;;15.93;;
71570;SDS011;59407;42.682;23.322;2024-01-11T07:12:54;24.23;;;15.45;;
71570;SDS011;59407;42.682;23.322;2024-01-11T07:15:19;30.03;;;16.03;;
71570;SDS011;59407;42.682;23.322;2024-01-11T07:17:45;25.13;;;16.63;;
71570;SDS011;59407;42.682;23.322;2024-01-11T07:20:10;30.07;;;15.73;;
71570;SDS011;59407;42.682;23.322;2024-01-11T07:22:36;29.88;;;15.43;;
71570;SDS011;59407;42.682;23.322;2024-01-11T07:25:02;32.10;;;14.80;;
71570;SDS011;59407;42.682;23.322;2024-01-11T07:27:29;18.40;;;12.75;;
71570;SDS011;59407;42.682;23.322;2024-01-11T07:29:54;23.33;;;13.50;;
71570;SDS011;59407;42.682;23.322;2024-01-11T07:32:20;28.00;;;15.02;;
71570;SDS011;59407;42.682;23.322;2024-01-11T07:34:45;22.43;;;14.43;;
71570;SDS011;59407;42.682;23.322;2024-01-11T07:37:22;23.60;;;14.10;;
71570;SDS011;59407;42.682;23.322;2024-01-11T07:39:47;28.90;;;16.83;;
71570;SDS011;59407;42.682;23.322;2024-01-11T07:42:14;26.67;;;13.27;;
71570;SDS011;59407;42.682;23.322;2024-01-11T07:44:41;17.10;;;11.70;;
71570;SDS011;59407;42.682;23.322;2024-01-11T07:47:06;25.92;;;15.07;;
71570;SDS011;59407;42.682;23.322;2024-01-11T07:49:32;27.67;;;15.73;;
71570;SDS011;59407;42.682;23.322;2024-01-11T07:51:57;27.38;;;16.63;;
71570;SDS011;59407;42.682;23.322;2024-01-11T07:54:23;29.63;;;17.80;;
71570;SDS011;59407;42.682;23.322;2024-01-11T07:57:05;29.80;;;18.10;;
71570;SDS011;59407;42.682;23.322;2024-01-11T07:59:34;27.92;;;17.38;;
71570;SDS011;59407;42.682;23.322;2024-01-11T08:02:03;31.10;;;16.67;;
71570;SDS011;59407;42.682;23.322;2024-01-11T08:04:29;24.58;;;15.52;;
71570;SDS011;59407;42.682;23.322;2024-01-11T08:06:54;26.98;;;17.27;;
71570;SDS011;59407;42.682;23.322;2024-01-11T08:09:21;25.15;;;13.15;;
71570;SDS011;59407;42.682;23.322;2024-01-11T08:11:47;31.70;;;16.95;;
71570;SDS011;59407;42.682;23.322;2024-01-11T08:14:12;25.73;;;15.27;;
71570;SDS011;59407;42.682;23.322;2024-01-11T08:16:39;32.03;;;16.80;;
71570;SDS011;59407;42.682;23.322;2024-01-11T08:19:04;26.43;;;15.10;;
71570;SDS011;59407;42.682;23.322;2024-01-11T08:21:30;27.80;;;16.63;;
71570;SDS011;59407;42.682;23.322;2024-01-11T08:23:55;29.97;;;18.87;;
71570;SDS011;59407;42.682;23.322;2024-01-11T08:26:21;34.03;;;19.07;;
71570;SDS011;59407;42.682;23.322;2024-01-11T08:31:40;19.20;;;12.55;;
71570;SDS011;59407;42.682;23.322;2024-01-11T08:47:14;24.92;;;15.43;;
71570;SDS011;59407;42.682;23.322;2024-01-11T08:49:40;28.27;;;16.07;;
71570;SDS011;59407;42.682;23.322;2024-01-11T08:52:05;38.40;;;20.17;;
71570;SDS011;59407;42.682;23.322;2024-01-11T08:54:33;37.10;;;20.35;;
71570;SDS011;59407;42.682;23.322;2024-01-11T08:56:59;37.78;;;17.70;;
71570;SDS011;59407;42.682;23.322;2024-01-11T08:59:25;25.90;;;15.43;;
71570;SDS011;59407;42.682;23.322;2024-01-11T09:01:53;28.13;;;15.43;;
71570;SDS011;59407;42.682;23.322;2024-01-11T09:04:19;31.30;;;18.25;;
71570;SDS011;59407;42.682;23.322;2024-01-11T09:06:45;33.13;;;19.03;;
71570;SDS011;59407;42.682;23.322;2024-01-11T09:09:11;30.23;;;16.00;;
71570;SDS011;59407;42.682;23.322;2024-01-11T09:11:38;32.42;;;19.00;;
71570;SDS011;59407;42.682;23.322;2024-01-11T09:14:05;31.23;;;18.23;;
71570;SDS011;59407;42.682;23.322;2024-01-11T09:16:31;31.83;;;17.00;;
71570;SDS011;59407;42.682;23.322;2024-01-11T09:18:58;29.00;;;16.30;;
71570;SDS011;59407;42.682;23.322;2024-01-11T09:21:27;29.23;;;16.48;;
71570;SDS011;59407;42.682;23.322;2024-01-11T09:23:52;33.60;;;17.00;;
71570;SDS011;59407;42.682;23.322;2024-01-11T09:26:18;28.23;;;15.67;;
71570;SDS011;59407;42.682;23.322;2024-01-11T09:28:43;33.72;;;18.90;;
71570;SDS011;59407;42.682;23.322;2024-01-11T09:31:10;26.25;;;14.55;;
71570;SDS011;59407;42.682;23.322;2024-01-11T09:33:36;33.17;;;17.30;;
71570;SDS011;59407;42.682;23.322;2024-01-11T09:36:01;31.13;;;18.03;;
71570;SDS011;59407;42.682;23.322;2024-01-11T09:38:29;27.50;;;14.43;;
71570;SDS011;59407;42.682;23.322;2024-01-11T09:40:59;34.80;;;18.15;;
71570;SDS011;59407;42.682;23.322;2024-01-11T09:43:34;22.50;;;14.97;;
71570;SDS011;59407;42.682;23.322;2024-01-11T09:46:04;25.50;;;15.38;;
71570;SDS011;59407;42.682;23.322;2024-01-11T09:48:34;23.17;;;13.38;;
71570;SDS011;59407;42.682;23.322;2024-01-11T09:51:04;19.00;;;12.48;;
71570;SDS011;59407;42.682;23.322;2024-01-11T09:53:32;23.67;;;12.13;;
71570;SDS011;59407;42.682;23.322;2024-01-11T09:55:59;18.83;;;12.57;;
71570;SDS011;59407;42.682;23.322;2024-01-11T09:58:26;22.00;;;13.00;;
71570;SDS011;59407;42.682;23.322;2024-01-11T10:00:55;30.77;;;15.70;;
71570;SDS011;59407;42.682;23.322;2024-01-11T10:03:25;25.95;;;15.35;;
71570;SDS011;59407;42.682;23.322;2024-01-11T10:05:55;23.55;;;13.90;;
71570;SDS011;59407;42.682;23.322;2024-01-11T10:08:22;30.30;;;16.83;;
71570;SDS011;59407;42.682;23.322;2024-01-11T10:10:48;28.20;;;15.13;;
71570;SDS011;59407;42.682;23.322;2024-01-11T10:13:14;29.55;;;16.92;;
71570;SDS011;59407;42.682;23.322;2024-01-11T10:15:42;19.23;;;11.38;;
71570;SDS011;59407;42.682;23.322;2024-01-11T10:18:08;23.52;;;14.63;;
71570;SDS011;59407;42.682;23.322;2024-01-11T10:20:34;22.15;;;12.63;;
71570;SDS011;59407;42.682;23.322;2024-01-11T10:22:59;24.47;;;12.43;;
71570;SDS011;59407;42.682;23.322;2024-01-11T10:25:26;25.05;;;13.10;;
71570;SDS011;59407;42.682;23.322;2024-01-11T10:27:52;29.10;;;15.48;;
71570;SDS011;59407;42.682;23.322;2024-01-11T10:30:17;28.37;;;16.03;;
71570;SDS011;59407;42.682;23.322;2024-01-11T10:32:44;10.15;;;6.57;;
71570;SDS011;59407;42.682;23.322;2024-01-11T10:35:10;31.88;;;17.20;;
71570;SDS011;59407;42.682;23.322;2024-01-11T10:37:36;30.23;;;17.02;;
71570;SDS011;59407;42.682;23.322;2024-01-11T10:40:07;34.55;;;19.30;;
71570;SDS011;59407;42.682;23.322;2024-01-11T10:42:41;28.23;;;16.08;;
71570;SDS011;59407;42.682;23.322;2024-01-11T10:45:15;24.67;;;15.90;;
71570;SDS011;59407;42.682;23.322;2024-01-11T10:47:55;28.55;;;15.40;;
71570;SDS011;59407;42.682;23.322;2024-01-11T10:50:25;26.35;;;13.38;;
71570;SDS011;59407;42.682;23.322;2024-01-11T10:53:02;28.05;;;15.00;;
71570;SDS011;59407;42.682;23.322;2024-01-11T10:55:46;26.08;;;15.13;;
71570;SDS011;59407;42.682;23.322;2024-01-11T10:58:14;26.63;;;14.70;;
71570;SDS011;59407;42.682;23.322;2024-01-11T11:00:41;31.73;;;15.90;;
71570;SDS011;59407;42.682;23.322;2024-01-11T11:03:06;25.10;;;15.13;;
71570;SDS011;59407;42.682;23.322;2024-01-11T11:05:32;20.85;;;12.73;;
71570;SDS011;59407;42.682;23.322;2024-01-11T11:08:00;23.27;;;14.23;;
71570;SDS011;59407;42.682;23.322;2024-01-11T11:10:27;25.45;;;13.88;;
71570;SDS011;59407;42.682;23.322;2024-01-11T11:12:55;24.05;;;13.38;;
71570;SDS011;59407;42.682;23.322;2024-01-11T11:15:24;25.33;;;13.73;;
71570;SDS011;59407;42.682;23.322;2024-01-11T11:17:54;28.38;;;15.82;;
71570;SDS011;59407;42.682;23.322;2024-01-11T11:20:21;28.20;;;13.50;;
71570;SDS011;59407;42.682;23.322;2024-01-11T11:25:35;14.77;;;8.50;;
71570;SDS011;59407;42.682;23.322;2024-01-11T11:28:00;12.03;;;6.37;;
71570;SDS011;59407;42.682;23.322;2024-01-11T11:30:31;16.98;;;9.85;;
71570;SDS011;59407;42.682;23.322;2024-01-11T11:33:11;18.88;;;9.45;;
71570;SDS011;59407;42.682;23.322;2024-01-11T11:35:51;17.73;;;8.40;;
71570;SDS011;59407;42.682;23.322;2024-01-11T11:38:25;12.60;;;8.27;;
71570;SDS011;59407;42.682;23.322;2024-01-11T11:40:55;20.60;;;10.60;;
71570;SDS011;59407;42.682;23.322;2024-01-11T11:43:22;18.17;;;9.30;;
71570;SDS011;59407;42.682;23.322;2024-01-11T11:45:48;18.70;;;10.13;;
71570;SDS011;59407;42.682;23.322;2024-01-11T11:51:09;20.45;;;11.13;;
71570;SDS011;59407;42.682;23.322;2024-01-11T11:53:42;17.67;;;8.43;;
71570;SDS011;59407;42.682;23.322;2024-01-11T11:56:08;20.45;;;9.63;;
71570;SDS011;59407;42.682;23.322;2024-01-11T11:58:35;20.10;;;10.55;;
71570;SDS011;59407;42.682;23.322;2024-01-11T12:01:02;18.02;;;10.70;;
71570;SDS011;59407;42.682;23.322;2024-01-11T12:03:28;19.42;;;10.48;;
71570;SDS011;59407;42.682;23.322;2024-01-11T12:06:00;17.35;;;8.85;;
71570;SDS011;59407;42.682;23.322;2024-01-11T12:08:25;21.65;;;11.13;;
71570;SDS011;59407;42.682;23.322;2024-01-11T12:10:52;11.77;;;7.23;;
71570;SDS011;59407;42.682;23.322;2024-01-11T12:13:18;13.82;;;7.05;;
71570;SDS011;59407;42.682;23.322;2024-01-11T12:15:43;14.53;;;6.97;;
71570;SDS011;59407;42.682;23.322;2024-01-11T12:18:10;12.85;;;6.68;;
71570;SDS011;59407;42.682;23.322;2024-01-11T12:20:35;11.63;;;6.93;;
71570;SDS011;59407;42.682;23.322;2024-01-11T12:23:02;12.93;;;7.32;;
71570;SDS011;59407;42.682;23.322;2024-01-11T12:25:30;10.73;;;6.18;;
71570;SDS011;59407;42.682;23.322;2024-01-11T12:27:59;12.25;;;6.28;;
71570;SDS011;59407;42.682;23.322;2024-01-11T12:30:25;10.45;;;5.05;;
71570;SDS011;59407;42.682;23.322;2024-01-11T12:32:51;14.18;;;6.53;;
71570;SDS011;59407;42.682;23.322;2024-01-11T12:35:17;11.97;;;5.80;;
71570;SDS011;59407;42.682;23.322;2024-01-11T12:37:53;12.07;;;6.45;;
71570;SDS011;59407;42.682;23.322;2024-01-11T12:40:23;13.02;;;6.22;;
71570;SDS011;59407;42.682;23.322;2024-01-11T12:42:49;9.93;;;5.97;;
71570;SDS011;59407;42.682;23.322;2024-01-11T12:45:16;7.85;;;4.53;;
71570;SDS011;59407;42.682;23.322;2024-01-11T12:47:44;5.25;;;3.65;;
71570;SDS011;59407;42.682;23.322;2024-01-11T12:50:13;7.03;;;3.63;;
71570;SDS011;59407;42.682;23.322;2024-01-11T12:52:38;4.97;;;3.13;;
71570;SDS011;59407;42.682;23.322;2024-01-11T12:55:06;4.03;;;2.55;;
71570;SDS011;59407;42.682;23.322;2024-01-11T12:57:33;6.25;;;3.50;;
71570;SDS011;59407;42.682;23.322;2024-01-11T13:02:38;6.47;;;2.88;;
71570;SDS011;59407;42.682;23.322;2024-01-11T13:05:05;4.70;;;2.20;;
71570;SDS011;59407;42.682;23.322;2024-01-11T13:07:32;5.75;;;3.05;;
71570;SDS011;59407;42.682;23.322;2024-01-11T13:10:00;5.57;;;3.22;;
71570;SDS011;59407;42.682;23.322;2024-01-11T13:12:28;5.85;;;4.05;;
71570;SDS011;59407;42.682;23.322;2024-01-11T13:14:56;5.93;;;2.83;;
71570;SDS011;59407;42.682;23.322;2024-01-11T13:17:21;7.13;;;3.83;;
71570;SDS011;59407;42.682;23.322;2024-01-11T13:19:51;5.93;;;2.50;;
71570;SDS011;59407;42.682;23.322;2024-01-11T13:22:19;4.13;;;2.90;;
71570;SDS011;59407;42.682;23.322;2024-01-11T13:24:48;5.72;;;2.88;;
71570;SDS011;59407;42.682;23.322;2024-01-11T13:27:17;5.38;;;2.90;;
71570;SDS011;59407;42.682;23.322;2024-01-11T13:29:44;4.50;;;2.33;;
71570;SDS011;59407;42.682;23.322;2024-01-11T13:32:42;4.45;;;2.75;;
71570;SDS011;59407;42.682;23.322;2024-01-11T13:35:09;3.93;;;2.57;;
71570;SDS011;59407;42.682;23.322;2024-01-11T13:37:35;6.03;;;2.75;;
71570;SDS011;59407;42.682;23.322;2024-01-11T13:40:01;6.57;;;3.33;;
71570;SDS011;59407;42.682;23.322;2024-01-11T13:42:28;3.03;;;1.75;;
71570;SDS011;59407;42.682;23.322;2024-01-11T13:44:54;3.97;;;2.63;;
71570;SDS011;59407;42.682;23.322;2024-01-11T13:47:21;3.77;;;2.10;;
71570;SDS011;59407;42.682;23.322;2024-01-11T13:49:48;4.32;;;2.83;;
71570;SDS011;59407;42.682;23.322;2024-01-11T13:52:15;4.13;;;2.40;;
71570;SDS011;59407;42.682;23.322;2024-01-11T13:54:42;4.80;;;2.85;;
71570;SDS011;59407;42.682;23.322;2024-01-11T13:57:08;5.82;;;3.58;;
71570;SDS011;59407;42.682;23.322;2024-01-11T13:59:34;9.00;;;4.50;;
71570;SDS011;59407;42.682;23.322;2024-01-11T14:02:00;8.43;;;3.40;;
71570;SDS011;59407;42.682;23.322;2024-01-11T14:04:25;6.23;;;3.40;;
71570;SDS011;59407;42.682;23.322;2024-01-11T14:06:51;8.60;;;5.10;;
71570;SDS011;59407;42.682;23.322;2024-01-11T14:09:17;6.73;;;4.03;;
71570;SDS011;59407;42.682;23.322;2024-01-11T14:11:44;6.93;;;4.05;;
71570;SDS011;59407;42.682;23.322;2024-01-11T14:14:13;3.93;;;2.83;;
71570;SDS011;59407;42.682;23.322;2024-01-11T14:16:40;4.35;;;2.92;;
71570;SDS011;59407;42.682;23.322;2024-01-11T14:19:07;7.28;;;3.83;;
71570;SDS011;59407;42.682;23.322;2024-01-11T14:21:36;6.60;;;3.58;;
71570;SDS011;59407;42.682;23.322;2024-01-11T14:24:02;6.47;;;3.70;;
71570;SDS011;59407;42.682;23.322;2024-01-11T14:26:31;5.68;;;3.05;;
71570;SDS011;59407;42.682;23.322;2024-01-11T14:29:05;10.65;;;4.07;;
71570;SDS011;59407;42.682;23.322;2024-01-11T14:31:31;5.60;;;2.80;;
71570;SDS011;59407;42.682;23.322;2024-01-11T14:33:56;6.97;;;3.00;;
71570;SDS011;59407;42.682;23.322;2024-01-11T14:36:22;4.83;;;3.37;;
71570;SDS011;59407;42.682;23.322;2024-01-11T14:38:48;7.88;;;3.08;;
71570;SDS011;59407;42.682;23.322;2024-01-11T14:41:16;5.88;;;3.08;;
71570;SDS011;59407;42.682;23.322;2024-01-11T14:43:42;3.95;;;2.13;;
71570;SDS011;59407;42.682;23.322;2024-01-11T14:46:08;6.95;;;4.25;;
71570;SDS011;59407;42.682;23.322;2024-01-11T14:48:38;10.13;;;5.65;;
71570;SDS011;59407;42.682;23.322;2024-01-11T14:51:04;7.10;;;3.00;;
71570;SDS011;59407;42.682;23.322;2024-01-11T14:53:30;7.82;;;4.30;;
71570;SDS011;59407;42.682;23.322;2024-01-11T14:55:56;11.20;;;5.13;;
71570;SDS011;59407;42.682;23.322;2024-01-11T14:58:22;11.27;;;5.07;;
71570;SDS011;59407;42.682;23.322;2024-01-11T15:00:49;5.40;;;3.67;;
71570;SDS011;59407;42.682;23.322;2024-01-11T15:03:15;10.30;;;3.97;;
71570;SDS011;59407;42.682;23.322;2024-01-11T15:05:41;6.80;;;4.20;;
71570;SDS011;59407;42.682;23.322;2024-01-11T15:08:07;5.97;;;4.18;;
71570;SDS011;59407;42.682;23.322;2024-01-11T15:10:32;9.03;;;4.27;;
71570;SDS011;59407;42.682;23.322;2024-01-11T15:12:57;7.50;;;4.10;;
71570;SDS011;59407;42.682;23.322;2024-01-11T15:15:23;6.47;;;3.72;;
71570;SDS011;59407;42.682;23.322;2024-01-11T15:17:48;8.53;;;5.23;;
71570;SDS011;59407;42.682;23.322;2024-01-11T15:20:14;9.37;;;5.07;;
71570;SDS011;59407;42.682;23.322;2024-01-11T15:22:40;10.85;;;5.63;;
71570;SDS011;59407;42.682;23.322;2024-01-11T15:25:06;8.23;;;5.57;;
71570;SDS011;59407;42.682;23.322;2024-01-11T15:27:34;8.55;;;4.50;;
71570;SDS011;59407;42.682;23.322;2024-01-11T15:30:09;11.20;;;5.70;;
71570;SDS011;59407;42.682;23.322;2024-01-11T15:32:36;9.27;;;4.00;;
71570;SDS011;59407;42.682;23.322;2024-01-11T15:35:02;10.35;;;5.78;;
71570;SDS011;59407;42.682;23.322;2024-01-11T15:37:28;7.28;;;4.65;;
71570;SDS011;59407;42.682;23.322;2024-01-11T15:39:55;10.40;;;5.90;;
71570;SDS011;59407;42.682;23.322;2024-01-11T15:42:21;14.25;;;5.53;;
71570;SDS011;59407;42.682;23.322;2024-01-11T15:44:49;9.43;;;5.88;;
71570;SDS011;59407;42.682;23.322;2024-01-11T15:47:15;12.18;;;6.13;;
71570;SDS011;59407;42.682;23.322;2024-01-11T15:49:43;10.23;;;5.40;;
71570;SDS011;59407;42.682;23.322;2024-01-11T15:52:12;11.30;;;5.55;;
71570;SDS011;59407;42.682;23.322;2024-01-11T15:54:38;12.87;;;5.47;;
71570;SDS011;59407;42.682;23.322;2024-01-11T15:57:03;12.18;;;6.57;;
71570;SDS011;59407;42.682;23.322;2024-01-11T15:59:29;8.55;;;5.55;;
71570;SDS011;59407;42.682;23.322;2024-01-11T16:01:55;11.07;;;5.35;;
71570;SDS011;59407;42.682;23.322;2024-01-11T16:04:39;10.07;;;6.23;;
71570;SDS011;59407;42.682;23.322;2024-01-11T16:07:06;11.77;;;6.60;;
71570;SDS011;59407;42.682;23.322;2024-01-11T16:09:31;10.57;;;5.85;;
71570;SDS011;59407;42.682;23.322;2024-01-11T16:11:58;12.10;;;6.53;;
71570;SDS011;59407;42.682;23.322;2024-01-11T16:14:24;7.30;;;3.72;;
71570;SDS011;59407;42.682;23.322;2024-01-11T16:16:49;13.37;;;6.77;;
71570;SDS011;59407;42.682;23.322;2024-01-11T16:19:15;8.43;;;5.97;;
71570;SDS011;59407;42.682;23.322;2024-01-11T16:21:40;8.47;;;4.13;;
71570;SDS011;59407;42.682;23.322;2024-01-11T16:24:07;9.35;;;5.28;;
71570;SDS011;59407;42.682;23.322;2024-01-11T16:26:33;12.52;;;6.78;;
71570;SDS011;59407;42.682;23.322;2024-01-11T16:28:58;15.47;;;6.33;;
71570;SDS011;59407;42.682;23.322;2024-01-11T16:31:25;9.30;;;5.47;;
71570;SDS011;59407;42.682;23.322;2024-01-11T16:33:51;9.73;;;4.82;;
71570;SDS011;59407;42.682;23.322;2024-01-11T16:36:17;7.57;;;5.10;;
71570;SDS011;59407;42.682;23.322;2024-01-11T16:38:42;9.97;;;4.50;;
71570;SDS011;59407;42.682;23.322;2024-01-11T16:41:10;7.80;;;4.60;;
71570;SDS011;59407;42.682;23.322;2024-01-11T16:43:35;9.10;;;5.35;;
71570;SDS011;59407;42.682;23.322;2024-01-11T16:46:02;8.63;;;6.13;;
71570;SDS011;59407;42.682;23.322;2024-01-11T16:48:29;7.85;;;4.32;;
71570;SDS011;59407;42.682;23.322;2024-01-11T16:50:55;9.57;;;5.20;;
71570;SDS011;59407;42.682;23.322;2024-01-11T16:53:21;5.07;;;3.95;;
71570;SDS011;59407;42.682;23.322;2024-01-11T16:55:47;7.60;;;4.88;;
71570;SDS011;59407;42.682;23.322;2024-01-11T16:58:13;13.73;;;6.03;;
71570;SDS011;59407;42.682;23.322;2024-01-11T17:00:38;13.23;;;6.07;;
71570;SDS011;59407;42.682;23.322;2024-01-11T17:03:06;9.67;;;5.47;;
71570;SDS011;59407;42.682;23.322;2024-01-11T17:05:32;13.40;;;8.25;;
71570;SDS011;59407;42.682;23.322;2024-01-11T17:07:59;17.98;;;7.57;;
71570;SDS011;59407;42.682;23.322;2024-01-11T17:10:24;10.17;;;7.23;;
71570;SDS011;59407;42.682;23.322;2024-01-11T17:12:50;13.13;;;5.90;;
71570;SDS011;59407;42.682;23.322;2024-01-11T17:15:15;9.00;;;5.30;;
71570;SDS011;59407;42.682;23.322;2024-01-11T17:17:42;7.87;;;4.93;;
71570;SDS011;59407;42.682;23.322;2024-01-11T17:20:09;13.15;;;6.53;;
71570;SDS011;59407;42.682;23.322;2024-01-11T17:22:36;12.10;;;6.65;;
71570;SDS011;59407;42.682;23.322;2024-01-11T17:25:02;9.18;;;6.47;;
71570;SDS011;59407;42.682;23.322;2024-01-11T17:27:28;12.10;;;5.88;;
71570;SDS011;59407;42.682;23.322;2024-01-11T17:29:53;11.87;;;6.50;;
71570;SDS011;59407;42.682;23.322;2024-01-11T17:32:19;8.70;;;5.85;;
71570;SDS011;59407;42.682;23.322;2024-01-11T17:34:47;11.77;;;5.53;;
71570;SDS011;59407;42.682;23.322;2024-01-11T17:37:19;9.35;;;5.32;;
71570;SDS011;59407;42.682;23.322;2024-01-11T17:39:49;9.75;;;5.53;;
71570;SDS011;59407;42.682;23.322;2024-01-11T17:42:15;10.52;;;4.93;;
71570;SDS011;59407;42.682;23.322;2024-01-11T17:44:41;8.23;;;5.70;;
71570;SDS011;59407;42.682;23.322;2024-01-11T17:47:08;11.15;;;4.93;;
71570;SDS011;59407;42.682;23.322;2024-01-11T17:49:34;7.65;;;5.07;;
71570;SDS011;59407;42.682;23.322;2024-01-11T17:52:02;4.90;;;2.72;;
71570;SDS011;59407;42.682;23.322;2024-01-11T17:54:28;5.55;;;3.72;;
71570;SDS011;59407;42.682;23.322;2024-01-11T17:56:53;8.80;;;4.70;;
71570;SDS011;59407;42.682;23.322;2024-01-11T18:02:29;7.88;;;4.57;;
71570;SDS011;59407;42.682;23.322;2024-01-11T18:04:56;9.07;;;5.32;;
71570;SDS011;59407;42.682;23.322;2024-01-11T18:07:22;8.00;;;4.17;;
71570;SDS011;59407;42.682;23.322;2024-01-11T18:09:48;9.32;;;5.72;;
71570;SDS011;59407;42.682;23.322;2024-01-11T18:12:14;7.53;;;4.75;;
71570;SDS011;59407;42.682;23.322;2024-01-11T18:14:40;9.27;;;5.43;;
71570;SDS011;59407;42.682;23.322;2024-01-11T18:17:05;9.82;;;6.35;;
71570;SDS011;59407;42.682;23.322;2024-01-11T18:19:33;13.35;;;5.18;;
71570;SDS011;59407;42.682;23.322;2024-01-11T18:21:58;6.30;;;4.18;;
71570;SDS011;59407;42.682;23.322;2024-01-11T18:24:24;6.73;;;4.30;;
71570;SDS011;59407;42.682;23.322;2024-01-11T18:26:49;4.63;;;2.30;;
71570;SDS011;59407;42.682;23.322;2024-01-11T18:29:15;7.10;;;4.93;;
71570;SDS011;59407;42.682;23.322;2024-01-11T18:31:41;9.97;;;5.47;;
71570;SDS011;59407;42.682;23.322;2024-01-11T18:34:06;7.55;;;4.82;;
71570;SDS011;59407;42.682;23.322;2024-01-11T18:36:41;10.97;;;6.67;;
71570;SDS011;59407;42.682;23.322;2024-01-11T18:39:54;6.53;;;3.78;;
71570;SDS011;59407;42.682;23.322;2024-01-11T18:42:20;9.13;;;5.53;;
71570;SDS011;59407;42.682;23.322;2024-01-11T18:44:48;12.70;;;6.57;;
71570;SDS011;59407;42.682;23.322;2024-01-11T18:47:14;11.77;;;6.07;;
71570;SDS011;59407;42.682;23.322;2024-01-11T18:49:39;7.73;;;5.17;;
71570;SDS011;59407;42.682;23.322;2024-01-11T18:52:05;14.23;;;6.57;;
71570;SDS011;59407;42.682;23.322;2024-01-11T18:54:30;8.73;;;5.63;;
71570;SDS011;59407;42.682;23.322;2024-01-11T18:56:56;10.23;;;6.53;;
71570;SDS011;59407;42.682;23.322;2024-01-11T19:02:43;9.32;;;6.32;;
71570;SDS011;59407;42.682;23.322;2024-01-11T19:05:11;12.02;;;6.43;;
71570;SDS011;59407;42.682;23.322;2024-01-11T19:07:44;12.27;;;6.97;;
71570;SDS011;59407;42.682;23.322;2024-01-11T19:10:11;12.48;;;6.88;;
71570;SDS011;59407;42.682;23.322;2024-01-11T19:12:36;9.57;;;6.37;;
71570;SDS011;59407;42.682;23.322;2024-01-11T19:15:02;9.68;;;6.00;;
71570;SDS011;59407;42.682;23.322;2024-01-11T19:17:28;8.73;;;5.27;;
71570;SDS011;59407;42.682;23.322;2024-01-11T19:23:30;9.50;;;5.27;;
71570;SDS011;59407;42.682;23.322;2024-01-11T19:25:56;9.52;;;5.82;;
71570;SDS011;59407;42.682;23.322;2024-01-11T19:28:23;10.15;;;6.15;;
71570;SDS011;59407;42.682;23.322;2024-01-11T19:30:51;7.43;;;4.65;;
71570;SDS011;59407;42.682;23.322;2024-01-11T19:33:19;10.65;;;5.50;;
71570;SDS011;59407;42.682;23.322;2024-01-11T19:35:45;8.50;;;5.33;;
71570;SDS011;59407;42.682;23.322;2024-01-11T19:38:11;13.13;;;5.65;;
71570;SDS011;59407;42.682;23.322;2024-01-11T19:40:39;24.73;;;6.85;;
71570;SDS011;59407;42.682;23.322;2024-01-11T19:43:08;6.13;;;4.07;;
71570;SDS011;59407;42.682;23.322;2024-01-11T19:45:34;8.35;;;5.05;;
71570;SDS011;59407;42.682;23.322;2024-01-11T19:48:00;8.15;;;5.75;;
71570;SDS011;59407;42.682;23.322;2024-01-11T19:50:26;12.20;;;5.47;;
71570;SDS011;59407;42.682;23.322;2024-01-11T19:52:53;7.50;;;4.93;;
71570;SDS011;59407;42.682;23.322;2024-01-11T19:55:18;10.82;;;6.97;;
71570;SDS011;59407;42.682;23.322;2024-01-11T19:57:44;10.52;;;6.93;;
71570;SDS011;59407;42.682;23.322;2024-01-11T20:00:11;8.13;;;5.63;;
71570;SDS011;59407;42.682;23.322;2024-01-11T20:02:39;8.50;;;4.57;;
71570;SDS011;59407;42.682;23.322;2024-01-11T20:05:04;6.73;;;4.67;;
71570;SDS011;59407;42.682;23.322;2024-01-11T20:07:32;12.18;;;6.60;;
71570;SDS011;59407;42.682;23.322;2024-01-11T20:09:59;10.45;;;5.60;;
71570;SDS011;59407;42.682;23.322;2024-01-11T20:12:25;12.77;;;7.97;;
71570;SDS011;59407;42.682;23.322;2024-01-11T20:14:50;9.57;;;5.00;;
71570;SDS011;59407;42.682;23.322;2024-01-11T20:17:19;10.63;;;5.93;;
71570;SDS011;59407;42.682;23.322;2024-01-11T20:19:48;10.23;;;6.68;;
71570;SDS011;59407;42.682;23.322;2024-01-11T20:22:16;8.93;;;5.05;;
71570;SDS011;59407;42.682;23.322;2024-01-11T20:24:43;6.75;;;4.22;;
71570;SDS011;59407;42.682;23.322;2024-01-11T20:27:10;11.10;;;6.20;;
71570;SDS011;59407;42.682;23.322;2024-01-11T20:29:35;8.23;;;5.22;;
71570;SDS011;59407;42.682;23.322;2024-01-11T20:32:02;7.60;;;5.15;;
71570;SDS011;59407;42.682;23.322;2024-01-11T20:34:28;10.20;;;7.20;;
71570;SDS011;59407;42.682;23.322;2024-01-11T20:36:54;11.57;;;7.43;;
71570;SDS011;59407;42.682;23.322;2024-01-11T20:39:20;12.98;;;7.65;;
71570;SDS011;59407;42.682;23.322;2024-01-11T20:41:46;11.83;;;7.37;;
71570;SDS011;59407;42.682;23.322;2024-01-11T20:44:11;11.40;;;7.63;;
71570;SDS011;59407;42.682;23.322;2024-01-11T20:46:37;9.53;;;5.60;;
71570;SDS011;59407;42.682;23.322;2024-01-11T20:49:03;9.00;;;5.70;;